createdAt,value
2019-04-28T15:42:54.548Z,44.2
2019-04-28T15:44:06.745Z,43.6
2019-04-28T15:45:18.944Z,43
2019-04-28T15:48:55.528Z,43
2019-04-28T15:50:07.734Z,42.9
2019-04-28T15:52:32.124Z,42.7
2019-04-28T15:54:56.506Z,42.7
2019-04-28T15:57:20.896Z,42.8
2019-04-28T15:58:33.100Z,42.6
2019-04-28T15:59:45.295Z,42.6
2019-04-28T16:02:09.687Z,42.5
2019-04-28T16:03:21.892Z,42.4
2019-04-28T16:04:34.008Z,42.2
2019-04-28T16:05:46.267Z,42.2
2019-04-28T16:06:58.471Z,42.2
2019-04-28T16:08:10.667Z,42
2019-04-28T16:09:22.861Z,41.8
2019-04-28T16:11:47.254Z,41.8
2019-04-28T16:12:59.448Z,41.8
2019-04-28T16:14:11.641Z,41.5
2019-04-28T16:16:36.059Z,41.3
2019-04-28T16:17:48.234Z,41
2019-04-28T16:20:12.624Z,41
2019-04-28T16:21:24.832Z,40.9
2019-04-28T16:25:01.413Z,41
2019-04-28T16:26:13.615Z,41
2019-04-28T16:27:25.816Z,41
2019-04-28T16:28:38.002Z,40.8
2019-04-28T16:31:02.405Z,40.9
2019-04-28T16:32:14.598Z,40.8
2019-04-28T16:33:26.788Z,40.7
2019-04-28T16:34:38.993Z,40.6
2019-04-28T16:37:03.379Z,40.6
2019-04-28T16:38:15.583Z,40.6
2019-04-28T16:40:39.974Z,40.5
2019-04-28T16:43:04.372Z,40.4
2019-04-28T16:44:16.559Z,40.4
2019-04-28T16:45:28.759Z,40.4
2019-04-28T16:46:40.095Z,40.5
2019-04-28T16:47:53.159Z,40.6
2019-04-28T16:49:05.346Z,40.6
2019-04-28T16:50:17.541Z,40.5
2019-04-28T16:52:41.934Z,40.5
2019-04-28T16:53:54.142Z,40.4
2019-04-28T16:55:06.451Z,40.4
2019-04-28T16:57:30.720Z,40.5
2019-04-28T16:58:42.923Z,40.6
2019-04-28T17:02:19.511Z,40.5
2019-04-28T17:03:31.717Z,40.5
2019-04-28T17:04:43.907Z,40.4
2019-04-28T17:07:08.295Z,40.4
2019-04-28T17:08:20.543Z,40.4
2019-04-28T17:09:32.692Z,40.4
2019-04-28T17:10:44.895Z,40.4
2019-04-28T17:14:21.048Z,40.5
2019-04-28T17:16:45.887Z,40.5
2019-04-28T17:17:58.070Z,40.4
2019-04-28T17:19:10.263Z,40.3
2019-04-28T17:20:22.461Z,40.4
2019-04-28T17:21:34.661Z,40.4
2019-04-28T17:22:46.854Z,40.4
2019-04-28T17:23:59.056Z,40.4
2019-04-28T17:25:11.248Z,40.4
2019-04-28T17:28:47.835Z,40.4
2019-04-28T17:30:00.038Z,40.4
2019-04-28T17:31:12.234Z,40.3
2019-04-28T17:32:24.428Z,40.3
2019-04-28T17:33:36.619Z,40.3
2019-04-28T17:37:13.214Z,40.3
2019-04-28T17:39:37.602Z,40.4
2019-04-28T17:40:49.809Z,40.3
2019-04-28T17:42:01.998Z,40.3
2019-04-28T17:43:14.198Z,40.4
2019-04-28T17:44:26.395Z,40.4
2019-04-28T17:45:38.589Z,40.4
2019-04-28T17:46:50.078Z,40.4
2019-04-28T17:48:02.982Z,40.3
2019-04-28T17:50:27.370Z,40.3
2019-04-28T17:52:51.772Z,40.2
2019-04-28T17:54:03.961Z,40.2
2019-04-28T17:55:16.171Z,40.2
2019-04-28T17:57:40.552Z,40.4
2019-04-28T17:58:52.749Z,40.2
2019-04-28T18:02:29.336Z,40.3
2019-04-28T18:03:41.541Z,40.3
2019-04-28T18:04:53.727Z,40.2
2019-04-28T18:06:05.926Z,40.2
2019-04-28T18:07:18.128Z,40.2
2019-04-28T18:08:30.321Z,40.2
2019-04-28T18:09:42.520Z,40.2
2019-04-28T18:10:54.715Z,40.2
2019-04-28T18:13:19.103Z,40.2
2019-04-28T18:15:43.505Z,40.2
2019-04-28T18:16:55.727Z,40.2
2019-04-28T18:20:32.288Z,40.2
2019-04-28T18:21:44.483Z,40.2
2019-04-28T18:22:56.074Z,40.3
2019-04-28T18:24:08.871Z,40.2
2019-04-28T18:26:33.277Z,40.3
2019-04-28T18:27:45.473Z,40.3
2019-04-28T18:28:57.666Z,40.3
2019-04-28T18:30:09.867Z,40.3
2019-04-28T18:31:22.065Z,40.4
2019-04-28T18:32:34.256Z,40.4
2019-04-28T18:36:10.848Z,40.4
2019-04-28T18:37:23.078Z,40.4
2019-04-28T18:38:35.234Z,40.5
2019-04-28T18:40:59.062Z,40.4
2019-04-28T18:42:11.828Z,40.4
